sensor_id;sensor_type;location;lat;lon;timestamp;temperature;humidity
14850;DHT22;7517;48.400;11.770;2023-06-26T00:02:03;21.50;54.30
14850;DHT22;7517;48.400;11.770;2023-06-26T00:04:31;21.50;54.50
14850;DHT22;7517;48.400;11.770;2023-06-26T00:07:01;21.40;54.50
14850;DHT22;7517;48.400;11.770;2023-06-26T00:09:30;21.40;54.50
14850;DHT22;7517;48.400;11.770;2023-06-26T00:11:57;21.40;54.60
14850;DHT22;7517;48.400;11.770;2023-06-26T00:14:24;21.40;54.70
14850;DHT22;7517;48.400;11.770;2023-06-26T00:16:51;21.30;54.80
14850;DHT22;7517;48.400;11.770;2023-06-26T00:19:19;21.30;55.10
14850;DHT22;7517;48.400;11.770;2023-06-26T00:21:46;21.20;55.30
14850;DHT22;7517;48.400;11.770;2023-06-26T00:24:14;21.20;55.50
14850;DHT22;7517;48.400;11.770;2023-06-26T00:26:43;21.10;55.60
14850;DHT22;7517;48.400;11.770;2023-06-26T00:29:10;21.10;55.80
14850;DHT22;7517;48.400;11.770;2023-06-26T00:31:37;21.10;55.90
14850;DHT22;7517;48.400;11.770;2023-06-26T00:34:05;21.00;56.00
14850;DHT22;7517;48.400;11.770;2023-06-26T00:36:33;21.00;56.00
14850;DHT22;7517;48.400;11.770;2023-06-26T00:39:00;21.00;56.10
14850;DHT22;7517;48.400;11.770;2023-06-26T00:41:28;21.00;56.10
14850;DHT22;7517;48.400;11.770;2023-06-26T00:43:57;21.00;56.10
14850;DHT22;7517;48.400;11.770;2023-06-26T00:46:24;21.00;56.10
14850;DHT22;7517;48.400;11.770;2023-06-26T00:48:52;20.90;56.10
14850;DHT22;7517;48.400;11.770;2023-06-26T00:51:21;20.90;56.20
14850;DHT22;7517;48.400;11.770;2023-06-26T00:53:49;20.90;56.50
14850;DHT22;7517;48.400;11.770;2023-06-26T00:56:17;20.90;56.60
14850;DHT22;7517;48.400;11.770;2023-06-26T00:58:45;20.90;56.70
14850;DHT22;7517;48.400;11.770;2023-06-26T01:01:14;20.80;56.70
14850;DHT22;7517;48.400;11.770;2023-06-26T01:03:43;20.80;56.80
14850;DHT22;7517;48.400;11.770;2023-06-26T01:06:13;20.70;56.90
14850;DHT22;7517;48.400;11.770;2023-06-26T01:08:41;20.70;57.00
14850;DHT22;7517;48.400;11.770;2023-06-26T01:11:09;20.70;57.00
14850;DHT22;7517;48.400;11.770;2023-06-26T01:13:38;20.70;57.20
14850;DHT22;7517;48.400;11.770;2023-06-26T01:16:09;20.70;57.30
14850;DHT22;7517;48.400;11.770;2023-06-26T01:18:39;20.70;57.30
14850;DHT22;7517;48.400;11.770;2023-06-26T01:21:07;20.70;57.30
14850;DHT22;7517;48.400;11.770;2023-06-26T01:23:42;20.70;57.30
14850;DHT22;7517;48.400;11.770;2023-06-26T01:26:22;20.60;57.30
14850;DHT22;7517;48.400;11.770;2023-06-26T01:28:51;20.60;57.30
14850;DHT22;7517;48.400;11.770;2023-06-26T01:31:20;20.60;57.20
14850;DHT22;7517;48.400;11.770;2023-06-26T01:33:47;20.60;57.30
14850;DHT22;7517;48.400;11.770;2023-06-26T01:36:16;20.50;57.40
14850;DHT22;7517;48.400;11.770;2023-06-26T01:38:43;20.50;57.60
14850;DHT22;7517;48.400;11.770;2023-06-26T01:41:11;20.50;57.70
14850;DHT22;7517;48.400;11.770;2023-06-26T01:43:54;20.50;57.70
14850;DHT22;7517;48.400;11.770;2023-06-26T01:46:36;20.40;58.00
14850;DHT22;7517;48.400;11.770;2023-06-26T01:49:09;20.40;58.00
14850;DHT22;7517;48.400;11.770;2023-06-26T01:51:46;20.40;58.00
14850;DHT22;7517;48.400;11.770;2023-06-26T01:54:18;20.40;58.20
14850;DHT22;7517;48.400;11.770;2023-06-26T01:56:50;20.40;58.10
14850;DHT22;7517;48.400;11.770;2023-06-26T01:59:22;20.40;58.30
14850;DHT22;7517;48.400;11.770;2023-06-26T02:01:52;20.30;58.40
14850;DHT22;7517;48.400;11.770;2023-06-26T02:04:21;20.30;58.40
14850;DHT22;7517;48.400;11.770;2023-06-26T02:06:48;20.30;58.40
14850;DHT22;7517;48.400;11.770;2023-06-26T02:09:16;20.20;58.40
14850;DHT22;7517;48.400;11.770;2023-06-26T02:11:43;20.20;58.50
14850;DHT22;7517;48.400;11.770;2023-06-26T02:14:10;20.20;58.50
14850;DHT22;7517;48.400;11.770;2023-06-26T02:16:39;20.20;58.50
14850;DHT22;7517;48.400;11.770;2023-06-26T02:19:06;20.20;58.70
14850;DHT22;7517;48.400;11.770;2023-06-26T02:21:33;20.20;58.60
14850;DHT22;7517;48.400;11.770;2023-06-26T02:24:01;20.20;58.70
14850;DHT22;7517;48.400;11.770;2023-06-26T02:26:28;20.10;58.60
14850;DHT22;7517;48.400;11.770;2023-06-26T02:28:55;20.10;58.70
14850;DHT22;7517;48.400;11.770;2023-06-26T02:31:22;20.10;58.80
14850;DHT22;7517;48.400;11.770;2023-06-26T02:33:51;20.10;59.00
14850;DHT22;7517;48.400;11.770;2023-06-26T02:36:19;20.10;58.90
14850;DHT22;7517;48.400;11.770;2023-06-26T02:38:47;20.00;58.80
14850;DHT22;7517;48.400;11.770;2023-06-26T02:41:15;20.00;58.80
14850;DHT22;7517;48.400;11.770;2023-06-26T02:43:42;20.00;58.90
14850;DHT22;7517;48.400;11.770;2023-06-26T02:46:09;20.00;58.90
14850;DHT22;7517;48.400;11.770;2023-06-26T02:48:36;19.90;58.90
14850;DHT22;7517;48.400;11.770;2023-06-26T02:51:05;19.90;59.00
14850;DHT22;7517;48.400;11.770;2023-06-26T02:53:32;19.90;59.10
14850;DHT22;7517;48.400;11.770;2023-06-26T02:55:59;19.80;59.10
14850;DHT22;7517;48.400;11.770;2023-06-26T02:58:27;19.80;59.10
14850;DHT22;7517;48.400;11.770;2023-06-26T03:00:55;19.80;59.20
14850;DHT22;7517;48.400;11.770;2023-06-26T03:03:22;19.80;59.20
14850;DHT22;7517;48.400;11.770;2023-06-26T03:05:49;19.70;59.40
14850;DHT22;7517;48.400;11.770;2023-06-26T03:08:18;19.70;59.50
14850;DHT22;7517;48.400;11.770;2023-06-26T03:10:45;19.70;59.80
14850;DHT22;7517;48.400;11.770;2023-06-26T03:13:12;19.70;59.80
14850;DHT22;7517;48.400;11.770;2023-06-26T03:15:39;19.70;59.80
14850;DHT22;7517;48.400;11.770;2023-06-26T03:18:07;19.70;59.90
14850;DHT22;7517;48.400;11.770;2023-06-26T03:20:35;19.70;59.80
14850;DHT22;7517;48.400;11.770;2023-06-26T03:23:02;19.60;60.00
14850;DHT22;7517;48.400;11.770;2023-06-26T03:25:30;19.60;60.20
14850;DHT22;7517;48.400;11.770;2023-06-26T03:27:58;19.60;60.30
14850;DHT22;7517;48.400;11.770;2023-06-26T03:30:25;19.60;60.20
14850;DHT22;7517;48.400;11.770;2023-06-26T03:32:52;19.60;60.30
14850;DHT22;7517;48.400;11.770;2023-06-26T03:35:21;19.60;60.50
14850;DHT22;7517;48.400;11.770;2023-06-26T03:37:49;19.50;60.60
14850;DHT22;7517;48.400;11.770;2023-06-26T03:40:16;19.50;60.70
14850;DHT22;7517;48.400;11.770;2023-06-26T03:42:44;19.50;60.80
14850;DHT22;7517;48.400;11.770;2023-06-26T03:45:12;19.40;60.90
14850;DHT22;7517;48.400;11.770;2023-06-26T03:47:39;19.40;60.90
14850;DHT22;7517;48.400;11.770;2023-06-26T03:50:06;19.40;61.00
14850;DHT22;7517;48.400;11.770;2023-06-26T03:52:34;19.30;61.10
14850;DHT22;7517;48.400;11.770;2023-06-26T03:55:01;19.30;61.10
14850;DHT22;7517;48.400;11.770;2023-06-26T03:57:29;19.30;61.20
14850;DHT22;7517;48.400;11.770;2023-06-26T03:59:58;19.20;61.40
14850;DHT22;7517;48.400;11.770;2023-06-26T04:02:26;19.20;62.50
14850;DHT22;7517;48.400;11.770;2023-06-26T04:04:54;19.20;61.80
14850;DHT22;7517;48.400;11.770;2023-06-26T04:07:21;19.20;62.00
14850;DHT22;7517;48.400;11.770;2023-06-26T04:09:48;19.20;62.20
14850;DHT22;7517;48.400;11.770;2023-06-26T04:12:16;19.20;63.10
14850;DHT22;7517;48.400;11.770;2023-06-26T04:14:43;19.20;62.60
14850;DHT22;7517;48.400;11.770;2023-06-26T04:17:11;19.20;62.70
14850;DHT22;7517;48.400;11.770;2023-06-26T04:19:38;19.20;62.90
14850;DHT22;7517;48.400;11.770;2023-06-26T04:22:06;19.20;62.90
14850;DHT22;7517;48.400;11.770;2023-06-26T04:24:33;19.20;63.00
14850;DHT22;7517;48.400;11.770;2023-06-26T04:27:00;19.20;63.10
14850;DHT22;7517;48.400;11.770;2023-06-26T04:29:27;19.20;63.20
14850;DHT22;7517;48.400;11.770;2023-06-26T04:31:54;19.20;63.30
14850;DHT22;7517;48.400;11.770;2023-06-26T04:34:25;19.20;63.50
14850;DHT22;7517;48.400;11.770;2023-06-26T04:36:52;19.30;63.70
14850;DHT22;7517;48.400;11.770;2023-06-26T04:39:19;19.30;63.70
14850;DHT22;7517;48.400;11.770;2023-06-26T04:41:46;19.30;63.80
14850;DHT22;7517;48.400;11.770;2023-06-26T04:44:13;19.40;63.80
14850;DHT22;7517;48.400;11.770;2023-06-26T04:46:40;19.40;63.80
14850;DHT22;7517;48.400;11.770;2023-06-26T04:49:08;19.50;64.00
14850;DHT22;7517;48.400;11.770;2023-06-26T04:51:37;19.50;64.00
14850;DHT22;7517;48.400;11.770;2023-06-26T04:54:06;19.50;64.10
14850;DHT22;7517;48.400;11.770;2023-06-26T04:56:34;19.60;64.20
14850;DHT22;7517;48.400;11.770;2023-06-26T04:59:02;19.60;64.30
14850;DHT22;7517;48.400;11.770;2023-06-26T05:01:29;19.70;64.40
14850;DHT22;7517;48.400;11.770;2023-06-26T05:03:57;19.70;64.30
14850;DHT22;7517;48.400;11.770;2023-06-26T05:06:25;19.80;64.10
14850;DHT22;7517;48.400;11.770;2023-06-26T05:08:54;19.80;63.80
14850;DHT22;7517;48.400;11.770;2023-06-26T05:11:21;19.90;63.60
14850;DHT22;7517;48.400;11.770;2023-06-26T05:13:48;20.00;63.50
14850;DHT22;7517;48.400;11.770;2023-06-26T05:16:16;20.00;63.50
14850;DHT22;7517;48.400;11.770;2023-06-26T05:18:43;20.10;63.30
14850;DHT22;7517;48.400;11.770;2023-06-26T05:21:11;20.20;63.30
14850;DHT22;7517;48.400;11.770;2023-06-26T05:23:39;20.20;63.00
14850;DHT22;7517;48.400;11.770;2023-06-26T05:26:08;20.30;62.90
14850;DHT22;7517;48.400;11.770;2023-06-26T05:28:37;20.30;62.70
14850;DHT22;7517;48.400;11.770;2023-06-26T05:31:04;20.40;62.50
14850;DHT22;7517;48.400;11.770;2023-06-26T05:33:34;20.50;62.30
14850;DHT22;7517;48.400;11.770;2023-06-26T05:36:04;20.60;62.00
14850;DHT22;7517;48.400;11.770;2023-06-26T05:38:34;20.60;62.00
14850;DHT22;7517;48.400;11.770;2023-06-26T05:41:02;20.70;61.70
14850;DHT22;7517;48.400;11.770;2023-06-26T05:43:31;20.80;61.60
14850;DHT22;7517;48.400;11.770;2023-06-26T05:45:58;20.90;61.60
14850;DHT22;7517;48.400;11.770;2023-06-26T05:48:25;20.90;61.70
14850;DHT22;7517;48.400;11.770;2023-06-26T05:50:54;21.00;61.50
14850;DHT22;7517;48.400;11.770;2023-06-26T05:53:22;21.10;61.10
14850;DHT22;7517;48.400;11.770;2023-06-26T05:55:51;21.20;60.60
14850;DHT22;7517;48.400;11.770;2023-06-26T05:58:20;21.30;60.50
14850;DHT22;7517;48.400;11.770;2023-06-26T06:00:51;21.30;60.00
14850;DHT22;7517;48.400;11.770;2023-06-26T06:03:18;21.40;60.00
14850;DHT22;7517;48.400;11.770;2023-06-26T06:05:46;21.50;60.20
14850;DHT22;7517;48.400;11.770;2023-06-26T06:08:13;21.60;60.50
14850;DHT22;7517;48.400;11.770;2023-06-26T06:10:41;21.70;59.70
14850;DHT22;7517;48.400;11.770;2023-06-26T06:13:08;21.70;59.60
14850;DHT22;7517;48.400;11.770;2023-06-26T06:15:35;21.80;59.40
14850;DHT22;7517;48.400;11.770;2023-06-26T06:18:04;21.90;59.40
14850;DHT22;7517;48.400;11.770;2023-06-26T06:20:31;22.00;59.20
14850;DHT22;7517;48.400;11.770;2023-06-26T06:22:59;22.10;59.10
14850;DHT22;7517;48.400;11.770;2023-06-26T06:25:26;22.20;59.00
14850;DHT22;7517;48.400;11.770;2023-06-26T06:27:54;22.30;59.00
14850;DHT22;7517;48.400;11.770;2023-06-26T06:30:21;22.40;59.00
14850;DHT22;7517;48.400;11.770;2023-06-26T06:32:48;22.40;58.90
14850;DHT22;7517;48.400;11.770;2023-06-26T06:35:19;22.50;58.70
14850;DHT22;7517;48.400;11.770;2023-06-26T06:37:46;22.60;58.70
14850;DHT22;7517;48.400;11.770;2023-06-26T06:40:15;22.70;58.60
14850;DHT22;7517;48.400;11.770;2023-06-26T06:42:42;22.80;58.60
14850;DHT22;7517;48.400;11.770;2023-06-26T06:45:09;22.90;58.40
14850;DHT22;7517;48.400;11.770;2023-06-26T06:47:37;23.00;58.40
14850;DHT22;7517;48.400;11.770;2023-06-26T06:50:05;23.10;58.60
14850;DHT22;7517;48.400;11.770;2023-06-26T06:52:36;23.20;58.50
14850;DHT22;7517;48.400;11.770;2023-06-26T06:55:07;23.30;58.20
14850;DHT22;7517;48.400;11.770;2023-06-26T06:57:36;23.50;58.10
14850;DHT22;7517;48.400;11.770;2023-06-26T07:00:05;23.50;58.00
14850;DHT22;7517;48.400;11.770;2023-06-26T07:02:35;23.60;58.10
14850;DHT22;7517;48.400;11.770;2023-06-26T07:05:02;23.70;58.10
14850;DHT22;7517;48.400;11.770;2023-06-26T07:07:31;23.90;58.00
14850;DHT22;7517;48.400;11.770;2023-06-26T07:10:03;24.00;57.60
14850;DHT22;7517;48.400;11.770;2023-06-26T07:12:31;24.10;57.80
14850;DHT22;7517;48.400;11.770;2023-06-26T07:15:00;24.30;57.80
14850;DHT22;7517;48.400;11.770;2023-06-26T07:17:28;24.40;57.70
14850;DHT22;7517;48.400;11.770;2023-06-26T07:19:55;24.60;57.60
14850;DHT22;7517;48.400;11.770;2023-06-26T07:22:22;24.70;57.50
14850;DHT22;7517;48.400;11.770;2023-06-26T07:24:50;24.90;57.40
14850;DHT22;7517;48.400;11.770;2023-06-26T07:27:19;25.10;57.20
14850;DHT22;7517;48.400;11.770;2023-06-26T07:29:47;25.20;56.80
14850;DHT22;7517;48.400;11.770;2023-06-26T07:32:15;25.40;56.60
14850;DHT22;7517;48.400;11.770;2023-06-26T07:34:42;25.60;56.90
14850;DHT22;7517;48.400;11.770;2023-06-26T07:37:09;25.70;56.90
14850;DHT22;7517;48.400;11.770;2023-06-26T07:39:36;25.90;57.10
14850;DHT22;7517;48.400;11.770;2023-06-26T07:42:04;26.00;56.80
14850;DHT22;7517;48.400;11.770;2023-06-26T07:44:32;26.20;56.50
14850;DHT22;7517;48.400;11.770;2023-06-26T07:47:00;26.30;56.00
14850;DHT22;7517;48.400;11.770;2023-06-26T07:49:27;26.50;55.60
14850;DHT22;7517;48.400;11.770;2023-06-26T07:51:54;26.70;55.60
14850;DHT22;7517;48.400;11.770;2023-06-26T07:54:22;26.80;55.40
14850;DHT22;7517;48.400;11.770;2023-06-26T07:56:54;27.00;54.90
14850;DHT22;7517;48.400;11.770;2023-06-26T07:59:23;27.10;54.50
14850;DHT22;7517;48.400;11.770;2023-06-26T08:01:53;27.30;54.00
14850;DHT22;7517;48.400;11.770;2023-06-26T08:04:23;27.50;53.60
14850;DHT22;7517;48.400;11.770;2023-06-26T08:06:55;27.60;53.30
14850;DHT22;7517;48.400;11.770;2023-06-26T08:09:25;27.80;52.60
14850;DHT22;7517;48.400;11.770;2023-06-26T08:11:54;28.00;52.60
14850;DHT22;7517;48.400;11.770;2023-06-26T08:14:22;28.10;52.20
14850;DHT22;7517;48.400;11.770;2023-06-26T08:16:49;28.20;51.60
14850;DHT22;7517;48.400;11.770;2023-06-26T08:19:18;28.40;52.00
14850;DHT22;7517;48.400;11.770;2023-06-26T08:21:47;28.50;51.50
14850;DHT22;7517;48.400;11.770;2023-06-26T08:24:14;28.70;51.10
14850;DHT22;7517;48.400;11.770;2023-06-26T08:26:45;28.80;51.00
14850;DHT22;7517;48.400;11.770;2023-06-26T08:29:12;29.00;50.90
14850;DHT22;7517;48.400;11.770;2023-06-26T08:31:42;29.20;50.80
14850;DHT22;7517;48.400;11.770;2023-06-26T08:34:09;29.30;50.60
14850;DHT22;7517;48.400;11.770;2023-06-26T08:36:38;29.50;50.60
14850;DHT22;7517;48.400;11.770;2023-06-26T08:39:05;29.60;50.20
14850;DHT22;7517;48.400;11.770;2023-06-26T08:41:34;29.80;50.10
14850;DHT22;7517;48.400;11.770;2023-06-26T08:44:01;30.00;49.50
14850;DHT22;7517;48.400;11.770;2023-06-26T08:46:31;30.20;49.80
14850;DHT22;7517;48.400;11.770;2023-06-26T08:49:03;30.30;49.00
14850;DHT22;7517;48.400;11.770;2023-06-26T08:51:43;30.50;48.70
14850;DHT22;7517;48.400;11.770;2023-06-26T08:54:17;30.70;48.80
14850;DHT22;7517;48.400;11.770;2023-06-26T08:56:49;30.80;48.80
14850;DHT22;7517;48.400;11.770;2023-06-26T08:59:21;31.00;48.40
14850;DHT22;7517;48.400;11.770;2023-06-26T09:01:50;31.10;47.80
14850;DHT22;7517;48.400;11.770;2023-06-26T09:04:17;31.30;47.50
14850;DHT22;7517;48.400;11.770;2023-06-26T09:06:49;31.50;47.60
14850;DHT22;7517;48.400;11.770;2023-06-26T09:09:16;31.60;47.10
14850;DHT22;7517;48.400;11.770;2023-06-26T09:11:43;31.70;47.30
14850;DHT22;7517;48.400;11.770;2023-06-26T09:14:11;31.90;46.90
14850;DHT22;7517;48.400;11.770;2023-06-26T09:16:42;32.10;46.60
14850;DHT22;7517;48.400;11.770;2023-06-26T09:19:10;32.20;46.80
14850;DHT22;7517;48.400;11.770;2023-06-26T09:21:38;32.40;46.10
14850;DHT22;7517;48.400;11.770;2023-06-26T09:24:09;32.50;45.90
14850;DHT22;7517;48.400;11.770;2023-06-26T09:26:37;32.70;45.10
14850;DHT22;7517;48.400;11.770;2023-06-26T09:29:07;32.80;45.00
14850;DHT22;7517;48.400;11.770;2023-06-26T09:31:37;33.00;44.50
14850;DHT22;7517;48.400;11.770;2023-06-26T09:34:05;33.10;44.30
14850;DHT22;7517;48.400;11.770;2023-06-26T09:36:33;33.20;44.20
14850;DHT22;7517;48.400;11.770;2023-06-26T09:39:02;33.40;43.80
14850;DHT22;7517;48.400;11.770;2023-06-26T09:41:35;33.60;43.60
14850;DHT22;7517;48.400;11.770;2023-06-26T09:44:04;33.70;43.50
14850;DHT22;7517;48.400;11.770;2023-06-26T09:46:33;33.90;42.90
14850;DHT22;7517;48.400;11.770;2023-06-26T09:49:05;34.10;42.60
14850;DHT22;7517;48.400;11.770;2023-06-26T09:51:35;34.30;41.80
14850;DHT22;7517;48.400;11.770;2023-06-26T09:54:04;34.50;41.90
14850;DHT22;7517;48.400;11.770;2023-06-26T09:56:36;34.70;42.30
14850;DHT22;7517;48.400;11.770;2023-06-26T09:59:04;34.90;41.70
14850;DHT22;7517;48.400;11.770;2023-06-26T10:01:33;35.20;41.20
14850;DHT22;7517;48.400;11.770;2023-06-26T10:04:00;35.50;41.00
14850;DHT22;7517;48.400;11.770;2023-06-26T10:06:33;35.70;40.60
14850;DHT22;7517;48.400;11.770;2023-06-26T10:09:03;36.10;40.20
14850;DHT22;7517;48.400;11.770;2023-06-26T10:11:36;36.40;40.00
14850;DHT22;7517;48.400;11.770;2023-06-26T10:14:09;36.60;39.40
14850;DHT22;7517;48.400;11.770;2023-06-26T10:16:39;37.00;39.40
14850;DHT22;7517;48.400;11.770;2023-06-26T10:19:11;37.20;39.40
14850;DHT22;7517;48.400;11.770;2023-06-26T10:21:40;37.40;38.80
14850;DHT22;7517;48.400;11.770;2023-06-26T10:24:10;37.70;38.40
14850;DHT22;7517;48.400;11.770;2023-06-26T10:26:44;37.80;38.00
14850;DHT22;7517;48.400;11.770;2023-06-26T10:29:13;38.00;37.50
14850;DHT22;7517;48.400;11.770;2023-06-26T10:31:44;38.10;37.70
14850;DHT22;7517;48.400;11.770;2023-06-26T10:34:17;38.20;37.20
14850;DHT22;7517;48.400;11.770;2023-06-26T10:36:44;38.30;36.90
14850;DHT22;7517;48.400;11.770;2023-06-26T10:39:13;38.40;36.70
14850;DHT22;7517;48.400;11.770;2023-06-26T10:41:41;38.40;36.80
14850;DHT22;7517;48.400;11.770;2023-06-26T10:44:10;38.40;36.50
14850;DHT22;7517;48.400;11.770;2023-06-26T10:46:51;38.50;36.30
14850;DHT22;7517;48.400;11.770;2023-06-26T10:49:20;38.50;35.80
14850;DHT22;7517;48.400;11.770;2023-06-26T10:51:49;38.50;35.90
14850;DHT22;7517;48.400;11.770;2023-06-26T10:54:18;38.50;35.80
14850;DHT22;7517;48.400;11.770;2023-06-26T10:56:48;38.40;35.60
14850;DHT22;7517;48.400;11.770;2023-06-26T10:59:21;38.40;35.40
14850;DHT22;7517;48.400;11.770;2023-06-26T11:01:54;38.30;35.20
14850;DHT22;7517;48.400;11.770;2023-06-26T11:04:37;38.20;34.70
14850;DHT22;7517;48.400;11.770;2023-06-26T11:07:17;38.00;33.80
14850;DHT22;7517;48.400;11.770;2023-06-26T11:09:56;37.80;34.40
14850;DHT22;7517;48.400;11.770;2023-06-26T11:12:37;37.60;34.40
14850;DHT22;7517;48.400;11.770;2023-06-26T11:15:08;37.40;34.80
14850;DHT22;7517;48.400;11.770;2023-06-26T11:17:36;37.20;35.10
14850;DHT22;7517;48.400;11.770;2023-06-26T11:20:05;37.10;35.10
14850;DHT22;7517;48.400;11.770;2023-06-26T11:22:35;36.90;34.70
14850;DHT22;7517;48.400;11.770;2023-06-26T11:25:05;36.60;34.50
14850;DHT22;7517;48.400;11.770;2023-06-26T11:27:39;36.50;34.60
14850;DHT22;7517;48.400;11.770;2023-06-26T11:30:09;36.20;34.20
14850;DHT22;7517;48.400;11.770;2023-06-26T11:32:39;36.00;34.30
14850;DHT22;7517;48.400;11.770;2023-06-26T11:35:07;35.90;34.60
14850;DHT22;7517;48.400;11.770;2023-06-26T11:37:35;35.70;35.40
14850;DHT22;7517;48.400;11.770;2023-06-26T11:40:16;35.60;35.50
14850;DHT22;7517;48.400;11.770;2023-06-26T11:42:46;35.40;35.00
14850;DHT22;7517;48.400;11.770;2023-06-26T11:45:13;35.30;35.20
14850;DHT22;7517;48.400;11.770;2023-06-26T11:47:40;35.20;35.60
14850;DHT22;7517;48.400;11.770;2023-06-26T11:50:15;35.00;35.80
14850;DHT22;7517;48.400;11.770;2023-06-26T11:52:43;35.00;35.70
14850;DHT22;7517;48.400;11.770;2023-06-26T11:55:11;34.90;35.90
14850;DHT22;7517;48.400;11.770;2023-06-26T11:57:38;34.80;36.20
14850;DHT22;7517;48.400;11.770;2023-06-26T12:00:14;34.70;36.40
14850;DHT22;7517;48.400;11.770;2023-06-26T12:02:42;34.70;36.80
14850;DHT22;7517;48.400;11.770;2023-06-26T12:05:10;34.70;37.10
14850;DHT22;7517;48.400;11.770;2023-06-26T12:07:38;34.70;37.10
14850;DHT22;7517;48.400;11.770;2023-06-26T12:10:07;34.70;36.80
14850;DHT22;7517;48.400;11.770;2023-06-26T12:12:36;34.70;36.60
14850;DHT22;7517;48.400;11.770;2023-06-26T12:15:04;34.70;36.50
14850;DHT22;7517;48.400;11.770;2023-06-26T12:17:38;34.70;36.20
14850;DHT22;7517;48.400;11.770;2023-06-26T12:20:17;34.70;36.60
14850;DHT22;7517;48.400;11.770;2023-06-26T12:22:48;34.60;36.30
14850;DHT22;7517;48.400;11.770;2023-06-26T12:25:22;34.60;36.90
14850;DHT22;7517;48.400;11.770;2023-06-26T12:27:50;34.50;36.50
14850;DHT22;7517;48.400;11.770;2023-06-26T12:30:17;34.50;36.40
14850;DHT22;7517;48.400;11.770;2023-06-26T12:32:46;34.40;36.00
14850;DHT22;7517;48.400;11.770;2023-06-26T12:35:13;34.40;35.90
14850;DHT22;7517;48.400;11.770;2023-06-26T12:37:41;34.40;36.30
14850;DHT22;7517;48.400;11.770;2023-06-26T12:40:17;34.30;36.50
14850;DHT22;7517;48.400;11.770;2023-06-26T12:42:47;34.30;35.90
14850;DHT22;7517;48.400;11.770;2023-06-26T12:45:15;34.30;36.20
14850;DHT22;7517;48.400;11.770;2023-06-26T12:47:42;34.20;36.40
14850;DHT22;7517;48.400;11.770;2023-06-26T12:50:12;34.20;36.40
14850;DHT22;7517;48.400;11.770;2023-06-26T12:52:39;34.20;36.30
14850;DHT22;7517;48.400;11.770;2023-06-26T12:55:08;34.20;36.50
14850;DHT22;7517;48.400;11.770;2023-06-26T12:57:36;34.30;36.50
14850;DHT22;7517;48.400;11.770;2023-06-26T13:00:05;34.30;36.20
14850;DHT22;7517;48.400;11.770;2023-06-26T13:02:33;34.30;36.30
14850;DHT22;7517;48.400;11.770;2023-06-26T13:05:00;34.30;36.40
14850;DHT22;7517;48.400;11.770;2023-06-26T13:07:28;34.40;36.20
14850;DHT22;7517;48.400;11.770;2023-06-26T13:09:55;34.40;36.20
14850;DHT22;7517;48.400;11.770;2023-06-26T13:12:23;34.40;36.10
14850;DHT22;7517;48.400;11.770;2023-06-26T13:14:50;34.40;35.70
14850;DHT22;7517;48.400;11.770;2023-06-26T13:17:18;34.40;35.80
14850;DHT22;7517;48.400;11.770;2023-06-26T13:19:45;34.40;35.80
14850;DHT22;7517;48.400;11.770;2023-06-26T13:22:12;34.40;35.40
14850;DHT22;7517;48.400;11.770;2023-06-26T13:24:40;34.40;35.50
14850;DHT22;7517;48.400;11.770;2023-06-26T13:27:08;34.50;35.50
14850;DHT22;7517;48.400;11.770;2023-06-26T13:29:35;34.40;35.60
14850;DHT22;7517;48.400;11.770;2023-06-26T13:32:02;34.40;35.90
14850;DHT22;7517;48.400;11.770;2023-06-26T13:34:30;34.40;35.90
14850;DHT22;7517;48.400;11.770;2023-06-26T13:36:57;34.40;36.00
14850;DHT22;7517;48.400;11.770;2023-06-26T13:39:25;34.40;36.10
14850;DHT22;7517;48.400;11.770;2023-06-26T13:41:54;34.40;36.20
14850;DHT22;7517;48.400;11.770;2023-06-26T13:44:23;34.40;35.70
14850;DHT22;7517;48.400;11.770;2023-06-26T13:46:50;34.40;36.40
14850;DHT22;7517;48.400;11.770;2023-06-26T13:49:19;34.40;35.30
14850;DHT22;7517;48.400;11.770;2023-06-26T13:51:46;34.40;35.20
14850;DHT22;7517;48.400;11.770;2023-06-26T13:54:13;34.40;35.30
14850;DHT22;7517;48.400;11.770;2023-06-26T13:56:40;34.40;34.80
14850;DHT22;7517;48.400;11.770;2023-06-26T13:59:09;34.40;34.00
14850;DHT22;7517;48.400;11.770;2023-06-26T14:01:37;34.40;33.30
14850;DHT22;7517;48.400;11.770;2023-06-26T14:04:05;34.40;33.00
14850;DHT22;7517;48.400;11.770;2023-06-26T14:06:34;34.40;33.20
14850;DHT22;7517;48.400;11.770;2023-06-26T14:09:01;34.40;32.80
14850;DHT22;7517;48.400;11.770;2023-06-26T14:11:29;34.40;32.50
14850;DHT22;7517;48.400;11.770;2023-06-26T14:13:57;34.40;32.50
14850;DHT22;7517;48.400;11.770;2023-06-26T14:16:26;34.30;32.70
14850;DHT22;7517;48.400;11.770;2023-06-26T14:18:54;34.30;33.00
14850;DHT22;7517;48.400;11.770;2023-06-26T14:21:21;34.30;33.10
14850;DHT22;7517;48.400;11.770;2023-06-26T14:23:48;34.30;33.30
14850;DHT22;7517;48.400;11.770;2023-06-26T14:26:16;34.30;34.00
14850;DHT22;7517;48.400;11.770;2023-06-26T14:28:43;34.30;34.90
14850;DHT22;7517;48.400;11.770;2023-06-26T14:31:10;34.20;35.60
14850;DHT22;7517;48.400;11.770;2023-06-26T14:33:39;34.20;36.30
14850;DHT22;7517;48.400;11.770;2023-06-26T14:36:06;34.10;35.10
14850;DHT22;7517;48.400;11.770;2023-06-26T14:38:39;33.90;34.40
14850;DHT22;7517;48.400;11.770;2023-06-26T14:41:06;33.90;34.10
14850;DHT22;7517;48.400;11.770;2023-06-26T14:43:34;33.80;34.60
14850;DHT22;7517;48.400;11.770;2023-06-26T14:46:01;33.70;34.50
14850;DHT22;7517;48.400;11.770;2023-06-26T14:48:28;33.70;34.60
14850;DHT22;7517;48.400;11.770;2023-06-26T14:50:57;33.70;34.50
14850;DHT22;7517;48.400;11.770;2023-06-26T14:53:25;33.70;34.40
14850;DHT22;7517;48.400;11.770;2023-06-26T14:55:52;33.70;34.50
14850;DHT22;7517;48.400;11.770;2023-06-26T14:58:22;33.70;34.80
14850;DHT22;7517;48.400;11.770;2023-06-26T15:00:49;33.70;34.50
14850;DHT22;7517;48.400;11.770;2023-06-26T15:03:16;33.80;34.80
14850;DHT22;7517;48.400;11.770;2023-06-26T15:05:43;33.80;35.10
14850;DHT22;7517;48.400;11.770;2023-06-26T15:08:12;33.80;35.10
14850;DHT22;7517;48.400;11.770;2023-06-26T15:10:40;33.80;35.20
14850;DHT22;7517;48.400;11.770;2023-06-26T15:13:07;33.80;35.00
14850;DHT22;7517;48.400;11.770;2023-06-26T15:15:34;33.80;35.20
14850;DHT22;7517;48.400;11.770;2023-06-26T15:18:01;33.80;35.10
14850;DHT22;7517;48.400;11.770;2023-06-26T15:20:30;33.80;36.30
14850;DHT22;7517;48.400;11.770;2023-06-26T15:22:57;33.80;35.40
14850;DHT22;7517;48.400;11.770;2023-06-26T15:25:26;33.90;35.10
14850;DHT22;7517;48.400;11.770;2023-06-26T15:27:54;33.90;35.40
14850;DHT22;7517;48.400;11.770;2023-06-26T15:30:21;33.90;35.50
14850;DHT22;7517;48.400;11.770;2023-06-26T15:32:49;33.90;35.40
14850;DHT22;7517;48.400;11.770;2023-06-26T15:35:16;33.90;36.00
14850;DHT22;7517;48.400;11.770;2023-06-26T15:37:43;33.90;35.30
14850;DHT22;7517;48.400;11.770;2023-06-26T15:40:12;34.00;35.80